createdAt,value
2022-12-25T00:01:48.675Z,5.91
2022-12-25T00:04:15.299Z,5.95
2022-12-25T00:06:41.932Z,6.02
2022-12-25T00:09:08.482Z,6.11
2022-12-25T00:11:35.205Z,6.14
2022-12-25T00:14:01.776Z,6.19
2022-12-25T00:16:28.409Z,6.27
2022-12-25T00:18:57.015Z,6.27
2022-12-25T00:21:23.515Z,6.30
2022-12-25T00:23:58.248Z,6.32
2022-12-25T00:26:26.015Z,6.32
2022-12-25T00:28:54.187Z,6.34
2022-12-25T00:31:22.233Z,6.38
2022-12-25T00:33:50.416Z,6.42
2022-12-25T00:36:19.089Z,6.48
2022-12-25T00:38:47.500Z,6.50
2022-12-25T00:41:18.215Z,6.52
2022-12-25T00:43:44.810Z,6.57
2022-12-25T00:46:12.800Z,6.59
2022-12-25T00:48:39.569Z,6.64
2022-12-25T00:51:09.386Z,6.69
2022-12-25T00:53:36.407Z,6.72
2022-12-25T00:56:05.704Z,6.75
2022-12-25T00:58:33.640Z,6.78
2022-12-25T01:01:00.702Z,6.81
2022-12-25T01:03:27.405Z,6.84
2022-12-25T01:05:57.128Z,6.88
2022-12-25T01:08:24.081Z,6.90
2022-12-25T01:10:58.945Z,6.93
2022-12-25T01:13:26.022Z,6.97
2022-12-25T01:15:52.759Z,7.00
2022-12-25T01:18:23.385Z,6.99
2022-12-25T01:20:50.027Z,7.02
2022-12-25T01:23:17.177Z,7.03
2022-12-25T01:25:43.786Z,7.04
2022-12-25T01:28:10.378Z,7.08
2022-12-25T01:30:36.868Z,7.08
2022-12-25T01:33:03.648Z,7.11
2022-12-25T01:35:30.167Z,7.13
2022-12-25T01:37:56.938Z,7.15
2022-12-25T01:40:23.531Z,7.17
2022-12-25T01:42:50.095Z,7.17
2022-12-25T01:45:32.249Z,7.18
2022-12-25T01:47:59.854Z,7.14
2022-12-25T01:50:27.739Z,7.15
2022-12-25T01:52:55.478Z,7.14
2022-12-25T01:55:22.498Z,7.10
2022-12-25T01:57:49.604Z,7.07
2022-12-25T02:00:16.316Z,7.11
2022-12-25T02:02:44.699Z,7.12
2022-12-25T02:05:29.331Z,7.11
2022-12-25T02:07:57.006Z,7.10
2022-12-25T02:10:23.762Z,7.05
2022-12-25T02:12:51.143Z,7.01
2022-12-25T02:15:20.773Z,6.94
2022-12-25T02:18:25.504Z,6.87
2022-12-25T02:21:19.648Z,6.81
2022-12-25T02:24:00.131Z,6.76
2022-12-25T02:26:41.809Z,6.72
2022-12-25T02:29:38.018Z,6.66
2022-12-25T02:32:16.410Z,6.64
2022-12-25T02:35:10.788Z,6.63
2022-12-25T02:37:49.676Z,6.62
2022-12-25T02:40:20.619Z,6.63
2022-12-25T02:43:15.938Z,6.65
2022-12-25T02:46:06.667Z,6.62
2022-12-25T02:48:55.958Z,6.56
2022-12-25T02:51:46.102Z,6.54
2022-12-25T02:54:36.058Z,6.53
2022-12-25T02:57:26.633Z,6.53
2022-12-25T03:00:15.214Z,6.60
2022-12-25T03:03:02.940Z,6.70
2022-12-25T03:05:51.553Z,6.83
2022-12-25T03:08:24.666Z,6.88
2022-12-25T03:11:18.264Z,6.93
2022-12-25T03:13:49.044Z,6.95
2022-12-25T03:16:34.337Z,6.98
2022-12-25T03:19:21.181Z,7.01
2022-12-25T03:22:06.334Z,7.10
2022-12-25T03:24:51.962Z,7.17
2022-12-25T03:27:18.685Z,7.25
2022-12-25T03:30:03.708Z,7.29
2022-12-25T03:32:51.834Z,7.34
2022-12-25T03:35:29.049Z,7.37
2022-12-25T03:38:23.258Z,7.39
2022-12-25T03:41:37.712Z,7.44
2022-12-25T03:44:22.498Z,7.45
2022-12-25T03:47:28.489Z,7.47
2022-12-25T03:50:36.751Z,7.50
2022-12-25T03:53:25.879Z,7.50
2022-12-25T03:56:11.841Z,7.50
2022-12-25T03:58:56.623Z,7.49
2022-12-25T04:01:41.756Z,7.50
2022-12-25T04:04:26.852Z,7.50
2022-12-25T04:07:12.021Z,7.47
2022-12-25T04:09:56.883Z,7.37
2022-12-25T04:12:41.848Z,7.25
2022-12-25T04:15:27.874Z,7.16
2022-12-25T04:18:12.940Z,7.07
2022-12-25T04:20:58.130Z,7.06
2022-12-25T04:23:43.183Z,7.07
2022-12-25T04:26:28.132Z,7.10
2022-12-25T04:29:13.109Z,7.07
2022-12-25T04:31:58.209Z,7.06
2022-12-25T04:34:43.284Z,7.02
2022-12-25T04:37:10.017Z,7.00
2022-12-25T04:39:36.451Z,6.96
2022-12-25T04:42:03.040Z,6.90
2022-12-25T04:44:29.583Z,6.85
2022-12-25T04:46:56.310Z,6.80
2022-12-25T04:49:22.832Z,6.76
2022-12-25T04:51:49.270Z,6.75
2022-12-25T04:54:16.146Z,6.71
2022-12-25T04:56:45.755Z,6.69
2022-12-25T04:59:12.830Z,6.68
2022-12-25T05:01:40.082Z,6.69
2022-12-25T05:04:07.034Z,6.68
2022-12-25T05:06:33.661Z,6.66
2022-12-25T05:09:00.126Z,6.65
2022-12-25T05:11:27.608Z,6.64
2022-12-25T05:13:54.084Z,6.61
2022-12-25T05:16:21.026Z,6.61
2022-12-25T05:18:51.973Z,6.59
2022-12-25T05:21:19.194Z,6.58
2022-12-25T05:23:48.991Z,6.58
2022-12-25T05:26:17.310Z,6.60
2022-12-25T05:28:43.811Z,6.62
2022-12-25T05:31:10.650Z,6.62
2022-12-25T05:33:37.475Z,6.63
2022-12-25T05:36:05.765Z,6.60
2022-12-25T05:38:33.044Z,6.60
2022-12-25T05:40:59.633Z,6.60
2022-12-25T05:43:27.366Z,6.63
2022-12-25T05:45:54.008Z,6.66
2022-12-25T05:48:20.573Z,6.67
2022-12-25T05:50:47.453Z,6.68
2022-12-25T05:53:15.862Z,6.70
2022-12-25T05:55:46.453Z,6.72
2022-12-25T05:58:13.765Z,6.75
2022-12-25T06:00:43.513Z,6.77
2022-12-25T06:03:10.006Z,6.81
2022-12-25T06:05:38.991Z,6.82
2022-12-25T06:08:06.247Z,6.84
2022-12-25T06:10:32.764Z,6.88
2022-12-25T06:12:59.348Z,6.90
2022-12-25T06:15:25.807Z,6.92
2022-12-25T06:17:52.367Z,6.93
2022-12-25T06:20:18.940Z,6.92
2022-12-25T06:22:45.587Z,6.94
2022-12-25T06:25:12.256Z,6.93
2022-12-25T06:27:38.849Z,6.94
2022-12-25T06:30:06.203Z,6.96
2022-12-25T06:32:32.768Z,6.99
2022-12-25T06:34:59.264Z,7.02
2022-12-25T06:37:25.806Z,7.06
2022-12-25T06:39:52.323Z,7.09
2022-12-25T06:42:18.916Z,7.13
2022-12-25T06:44:45.444Z,7.15
2022-12-25T06:47:11.959Z,7.18
2022-12-25T06:49:38.406Z,7.21
2022-12-25T06:52:05.040Z,7.25
2022-12-25T06:54:31.561Z,7.25
2022-12-25T06:56:58.087Z,7.28
2022-12-25T06:59:24.976Z,7.29
2022-12-25T07:01:57.367Z,7.31
2022-12-25T07:04:26.893Z,7.32
2022-12-25T07:06:53.462Z,7.36
2022-12-25T07:09:20.037Z,7.34
2022-12-25T07:11:46.705Z,7.37
2022-12-25T07:14:24.525Z,7.38
2022-12-25T07:16:51.559Z,7.39
2022-12-25T07:19:19.324Z,7.40
2022-12-25T07:21:46.333Z,7.42
2022-12-25T07:24:17.704Z,7.44
2022-12-25T07:26:44.217Z,7.46
2022-12-25T07:29:10.754Z,7.47
2022-12-25T07:31:37.919Z,7.47
2022-12-25T07:34:04.719Z,7.48
2022-12-25T07:36:31.263Z,7.50
2022-12-25T07:38:57.911Z,7.49
2022-12-25T07:41:24.540Z,7.50
2022-12-25T07:43:52.962Z,7.51
2022-12-25T07:46:21.185Z,7.52
2022-12-25T07:48:47.846Z,7.53
2022-12-25T07:51:16.165Z,7.53
2022-12-25T07:53:43.169Z,7.53
2022-12-25T07:56:15.943Z,7.54
2022-12-25T07:58:43.008Z,7.54
2022-12-25T08:01:22.396Z,7.54
2022-12-25T08:03:54.334Z,7.54
2022-12-25T08:06:22.244Z,7.55
2022-12-25T08:08:48.947Z,7.57
2022-12-25T08:11:15.606Z,7.58
2022-12-25T08:13:42.165Z,7.58
2022-12-25T08:16:10.554Z,7.60
2022-12-25T08:18:38.288Z,7.59
2022-12-25T08:21:10.866Z,7.63
2022-12-25T08:23:39.605Z,7.62
2022-12-25T08:26:08.705Z,7.64
2022-12-25T08:28:35.726Z,7.64
2022-12-25T08:31:15.934Z,7.67
2022-12-25T08:33:42.529Z,7.66
2022-12-25T08:36:10.705Z,7.66
2022-12-25T08:38:37.993Z,7.67
2022-12-25T08:41:05.193Z,7.70
2022-12-25T08:43:31.737Z,7.69
2022-12-25T08:45:58.275Z,7.71
2022-12-25T08:48:25.189Z,7.72
2022-12-25T08:50:52.951Z,7.75
2022-12-25T08:53:19.809Z,7.77
2022-12-25T08:55:46.438Z,7.79
2022-12-25T08:58:14.402Z,7.80
2022-12-25T09:00:41.548Z,7.81
2022-12-25T09:03:08.387Z,7.84
2022-12-25T09:05:36.563Z,7.84
2022-12-25T09:08:03.315Z,7.86
2022-12-25T09:10:30.139Z,7.89
2022-12-25T09:12:57.011Z,7.90
2022-12-25T09:15:23.672Z,7.93
2022-12-25T09:17:50.113Z,7.93
2022-12-25T09:20:16.619Z,7.96
2022-12-25T09:22:43.125Z,7.97
2022-12-25T09:25:09.951Z,8.00
2022-12-25T09:27:37.362Z,8.02
2022-12-25T09:30:05.042Z,8.04
2022-12-25T09:32:31.815Z,8.05
2022-12-25T09:34:58.337Z,8.05
2022-12-25T09:37:24.888Z,8.06
2022-12-25T09:39:51.664Z,8.07
2022-12-25T09:42:22.057Z,8.07
2022-12-25T09:45:28.586Z,8.08
2022-12-25T09:47:57.036Z,8.08
2022-12-25T09:50:58.795Z,8.11
2022-12-25T09:53:29.408Z,8.14
2022-12-25T09:56:12.601Z,8.17
2022-12-25T09:58:39.310Z,8.18
2022-12-25T10:01:31.981Z,8.19
2022-12-25T10:04:06.201Z,8.19
2022-12-25T10:06:32.650Z,8.18
2022-12-25T10:09:18.133Z,8.17
2022-12-25T10:12:03.408Z,8.19
2022-12-25T10:14:47.842Z,8.19
2022-12-25T10:17:32.747Z,8.17
2022-12-25T10:20:02.272Z,8.19
2022-12-25T10:22:40.804Z,8.19
2022-12-25T10:25:17.865Z,8.20
2022-12-25T10:27:44.685Z,8.20
2022-12-25T10:30:17.228Z,8.23
2022-12-25T10:32:45.262Z,8.24
2022-12-25T10:35:17.042Z,8.25
2022-12-25T10:37:46.514Z,8.27
2022-12-25T10:40:31.184Z,8.29
2022-12-25T10:43:07.309Z,8.31
2022-12-25T10:45:43.727Z,8.32
2022-12-25T10:48:18.649Z,8.33
2022-12-25T10:50:45.166Z,8.35
2022-12-25T10:53:19.720Z,8.31
2022-12-25T10:56:04.339Z,8.31
2022-12-25T10:58:32.736Z,8.32
2022-12-25T11:01:05.748Z,8.32
2022-12-25T11:03:39.058Z,8.33
2022-12-25T11:06:07.477Z,8.34
2022-12-25T11:08:35.120Z,8.37
2022-12-25T11:11:08.867Z,8.40
2022-12-25T11:13:40.308Z,8.45
2022-12-25T11:16:27.116Z,8.44
2022-12-25T11:18:54.478Z,8.43
2022-12-25T11:21:25.551Z,8.43
2022-12-25T11:24:01.189Z,8.42
2022-12-25T11:26:30.601Z,8.42
2022-12-25T11:28:58.282Z,8.45
2022-12-25T11:31:40.945Z,8.49
2022-12-25T11:34:24.651Z,8.52
2022-12-25T11:36:52.509Z,8.58
2022-12-25T11:39:25.115Z,8.61
2022-12-25T11:41:58.000Z,8.67
2022-12-25T11:44:33.832Z,8.73
2022-12-25T11:47:12.723Z,8.81
2022-12-25T11:49:49.712Z,8.88
2022-12-25T11:52:18.987Z,8.97
2022-12-25T11:54:56.886Z,8.99
2022-12-25T11:57:27.499Z,8.98
2022-12-25T12:00:00.287Z,8.97
2022-12-25T12:02:36.720Z,8.95
2022-12-25T12:05:18.954Z,8.91
2022-12-25T12:08:01.723Z,8.87
2022-12-25T12:10:44.511Z,8.84
2022-12-25T12:13:33.568Z,8.84
2022-12-25T12:16:00.350Z,8.87
2022-12-25T12:18:26.826Z,8.87
2022-12-25T12:21:20.763Z,8.90
2022-12-25T12:24:07.641Z,8.92
2022-12-25T12:26:38.155Z,8.90
2022-12-25T12:29:08.034Z,8.89
2022-12-25T12:31:43.360Z,8.89
2022-12-25T12:34:28.121Z,8.92
2022-12-25T12:37:05.526Z,8.88
2022-12-25T12:39:36.812Z,8.85
2022-12-25T12:42:13.910Z,8.83
2022-12-25T12:44:40.622Z,8.84
2022-12-25T12:47:27.620Z,8.81
2022-12-25T12:50:01.435Z,8.80
2022-12-25T12:52:38.749Z,8.81
2022-12-25T12:55:08.749Z,8.77
2022-12-25T12:57:39.971Z,8.76
2022-12-25T13:00:18.204Z,8.78
2022-12-25T13:03:15.598Z,8.78
2022-12-25T13:05:48.122Z,8.77
2022-12-25T13:08:42.091Z,8.75
2022-12-25T13:11:19.612Z,8.70
2022-12-25T13:13:48.585Z,8.70
2022-12-25T13:16:19.681Z,8.69
2022-12-25T13:18:46.654Z,8.69
2022-12-25T13:21:20.645Z,8.68
2022-12-25T13:23:47.332Z,8.68
2022-12-25T13:26:17.954Z,8.68
2022-12-25T13:28:46.721Z,8.71
2022-12-25T13:31:17.972Z,8.70
2022-12-25T13:33:57.984Z,8.70
2022-12-25T13:36:29.535Z,8.67
2022-12-25T13:38:58.673Z,8.67
2022-12-25T13:41:49.033Z,8.66
2022-12-25T13:44:22.627Z,8.64
2022-12-25T13:46:49.505Z,8.65
2022-12-25T13:49:18.780Z,8.65
2022-12-25T13:51:46.515Z,8.66
2022-12-25T13:54:15.671Z,8.66
2022-12-25T13:56:56.056Z,8.66
2022-12-25T13:59:25.373Z,8.64
2022-12-25T14:01:54.150Z,8.63
2022-12-25T14:04:23.053Z,8.61
2022-12-25T14:06:51.704Z,8.59
2022-12-25T14:09:19.302Z,8.60
2022-12-25T14:11:52.227Z,8.63
2022-12-25T14:14:23.282Z,8.63
2022-12-25T14:16:53.469Z,8.63
2022-12-25T14:19:34.064Z,8.64
2022-12-25T14:22:17.487Z,8.64
2022-12-25T14:24:44.160Z,8.62
2022-12-25T14:27:23.232Z,8.63
2022-12-25T14:29:53.108Z,8.62
2022-12-25T14:32:25.136Z,8.62
2022-12-25T14:34:56.936Z,8.61
2022-12-25T14:37:28.210Z,8.61
2022-12-25T14:40:18.691Z,8.61
2022-12-25T14:42:58.296Z,8.59
2022-12-25T14:45:26.554Z,8.57
2022-12-25T14:47:55.366Z,8.56
2022-12-25T14:50:41.286Z,8.57
2022-12-25T14:53:19.790Z,8.56
2022-12-25T14:55:52.526Z,8.55
2022-12-25T14:58:26.491Z,8.57
2022-12-25T15:00:56.624Z,8.58
2022-12-25T15:03:27.735Z,8.58
2022-12-25T15:06:05.720Z,8.59
2022-12-25T15:08:34.700Z,8.58
2022-12-25T15:11:02.999Z,8.59
2022-12-25T15:13:31.451Z,8.58
2022-12-25T15:16:04.379Z,8.58
2022-12-25T15:18:36.750Z,8.57
2022-12-25T15:21:03.368Z,8.56
2022-12-25T15:23:30.036Z,8.57
2022-12-25T15:25:56.527Z,8.56
2022-12-25T15:28:22.978Z,8.56
2022-12-25T15:30:50.018Z,8.55
2022-12-25T15:33:18.507Z,8.54
2022-12-25T15:35:45.803Z,8.55
2022-12-25T15:38:13.502Z,8.55
2022-12-25T15:40:40.731Z,8.55
2022-12-25T15:43:14.557Z,8.54
2022-12-25T15:45:55.348Z,8.54
2022-12-25T15:48:21.892Z,8.54
2022-12-25T15:50:49.411Z,8.52
2022-12-25T15:53:15.901Z,8.52
2022-12-25T15:55:42.408Z,8.50
2022-12-25T15:58:13.120Z,8.51
2022-12-25T16:00:39.639Z,8.51
2022-12-25T16:03:06.287Z,8.49
2022-12-25T16:05:32.846Z,8.48
2022-12-25T16:07:59.461Z,8.48
2022-12-25T16:10:26.091Z,8.47
2022-12-25T16:12:52.608Z,8.46
2022-12-25T16:15:19.130Z,8.45
2022-12-25T16:17:45.712Z,8.45
2022-12-25T16:20:12.607Z,8.45
2022-12-25T16:22:41.734Z,8.44
2022-12-25T16:25:19.153Z,8.45
2022-12-25T16:27:46.410Z,8.44
2022-12-25T16:30:15.492Z,8.44
2022-12-25T16:32:42.938Z,8.44
2022-12-25T16:35:10.932Z,8.43
2022-12-25T16:37:39.060Z,8.41
2022-12-25T16:40:07.229Z,8.40
2022-12-25T16:42:34.176Z,8.39
2022-12-25T16:45:00.661Z,8.38
2022-12-25T16:47:27.256Z,8.37
2022-12-25T16:49:53.740Z,8.39
2022-12-25T16:52:20.265Z,8.39
2022-12-25T16:54:46.953Z,8.38
2022-12-25T16:57:14.619Z,8.39
2022-12-25T16:59:41.720Z,8.38
2022-12-25T17:02:15.055Z,8.37
2022-12-25T17:04:41.686Z,8.38
2022-12-25T17:07:08.188Z,8.38
2022-12-25T17:09:40.417Z,8.37
2022-12-25T17:12:10.354Z,8.38
2022-12-25T17:14:36.871Z,8.37
2022-12-25T17:17:03.722Z,8.35
2022-12-25T17:19:30.336Z,8.37
2022-12-25T17:21:57.319Z,8.36
2022-12-25T17:24:23.879Z,8.38
2022-12-25T17:26:50.377Z,8.37
2022-12-25T17:29:21.651Z,8.37
2022-12-25T17:31:48.859Z,8.37
2022-12-25T17:34:15.475Z,8.37
2022-12-25T17:36:42.067Z,8.37
2022-12-25T17:39:11.096Z,8.38
2022-12-25T17:41:37.924Z,8.38
2022-12-25T17:44:04.724Z,8.37
2022-12-25T17:46:31.426Z,8.36
2022-12-25T17:48:59.788Z,8.35
2022-12-25T17:51:28.306Z,8.34
2022-12-25T17:53:59.926Z,8.33
2022-12-25T17:56:26.836Z,8.32
2022-12-25T17:58:56.027Z,8.33
2022-12-25T18:01:25.021Z,8.32
2022-12-25T18:03:52.264Z,8.31
2022-12-25T18:06:21.588Z,8.31
2022-12-25T18:08:48.265Z,8.31
2022-12-25T18:11:18.150Z,8.29
2022-12-25T18:13:48.286Z,8.28
2022-12-25T18:16:15.967Z,8.26
2022-12-25T18:18:47.955Z,8.26
2022-12-25T18:21:18.452Z,8.25
2022-12-25T18:23:46.257Z,8.25
2022-12-25T18:26:12.991Z,8.23
2022-12-25T18:28:40.030Z,8.23
2022-12-25T18:31:10.670Z,8.22
2022-12-25T18:33:37.240Z,8.23
2022-12-25T18:36:04.141Z,8.23
2022-12-25T18:38:30.855Z,8.22
2022-12-25T18:40:57.987Z,8.20
2022-12-25T18:43:52.654Z,8.19
2022-12-25T18:46:11.711Z,8.21
2022-12-25T18:48:39.475Z,8.18
2022-12-25T18:51:08.395Z,8.20
2022-12-25T18:53:35.953Z,8.19
2022-12-25T18:56:09.422Z,8.19
2022-12-25T18:58:37.868Z,8.17
2022-12-25T19:01:19.612Z,8.16
2022-12-25T19:03:46.679Z,8.16
2022-12-25T19:06:25.010Z,8.15
2022-12-25T19:08:51.703Z,8.14
2022-12-25T19:11:19.337Z,8.13
2022-12-25T19:13:45.984Z,8.12
2022-12-25T19:16:13.158Z,8.13
2022-12-25T19:18:40.440Z,8.14
2022-12-25T19:21:08.803Z,8.13
2022-12-25T19:23:37.716Z,8.11
2022-12-25T19:26:05.915Z,8.11
2022-12-25T19:28:32.551Z,8.13
2022-12-25T19:31:00.428Z,8.12
2022-12-25T19:33:27.124Z,8.13
2022-12-25T19:35:53.658Z,8.13
2022-12-25T19:38:20.372Z,8.14
2022-12-25T19:41:00.563Z,8.14
2022-12-25T19:43:36.230Z,8.14
2022-12-25T19:46:03.568Z,8.14
2022-12-25T19:48:31.833Z,8.13
2022-12-25T19:50:58.866Z,8.12
2022-12-25T19:53:25.746Z,8.13
2022-12-25T19:55:53.704Z,8.14
2022-12-25T19:58:22.417Z,8.15
2022-12-25T20:01:05.528Z,8.16
2022-12-25T20:03:33.596Z,8.16
2022-12-25T20:06:01.078Z,8.16
2022-12-25T20:08:28.023Z,8.16
2022-12-25T20:10:54.883Z,8.17
2022-12-25T20:13:21.484Z,8.17
2022-12-25T20:15:48.518Z,8.18
2022-12-25T20:18:15.053Z,8.18
2022-12-25T20:20:42.536Z,8.19
2022-12-25T20:23:09.960Z,8.20
2022-12-25T20:25:42.762Z,8.21
2022-12-25T20:28:09.619Z,8.22
2022-12-25T20:30:39.860Z,8.23
2022-12-25T20:33:06.451Z,8.23
2022-12-25T20:35:33.111Z,8.22
2022-12-25T20:37:59.565Z,8.22
2022-12-25T20:40:26.063Z,8.23
2022-12-25T20:42:52.572Z,8.23
2022-12-25T20:45:19.050Z,8.24
2022-12-25T20:47:45.743Z,8.24
2022-12-25T20:50:12.255Z,8.25
2022-12-25T20:52:38.770Z,8.26
2022-12-25T20:55:05.814Z,8.26
2022-12-25T20:57:32.348Z,8.26
2022-12-25T20:59:58.876Z,8.25
2022-12-25T21:02:35.009Z,8.25
2022-12-25T21:05:03.126Z,8.26
2022-12-25T21:07:29.591Z,8.29
2022-12-25T21:09:56.093Z,8.28
2022-12-25T21:12:22.624Z,8.30
2022-12-25T21:14:49.190Z,8.30
2022-12-25T21:17:15.710Z,8.30
2022-12-25T21:19:42.309Z,8.32
2022-12-25T21:22:08.864Z,8.33
2022-12-25T21:24:35.573Z,8.33
2022-12-25T21:27:02.139Z,8.33
2022-12-25T21:29:28.641Z,8.34
2022-12-25T21:32:13.667Z,8.33
2022-12-25T21:34:40.442Z,8.35
2022-12-25T21:37:06.921Z,8.35
2022-12-25T21:39:33.568Z,8.37
2022-12-25T21:42:00.090Z,8.39
2022-12-25T21:44:26.685Z,8.40
2022-12-25T21:46:53.312Z,8.40
2022-12-25T21:49:39.868Z,8.42
2022-12-25T21:52:09.277Z,8.43
2022-12-25T21:54:36.420Z,8.43
2022-12-25T21:57:03.444Z,8.43
2022-12-25T21:59:29.942Z,8.45
2022-12-25T22:01:56.600Z,8.44
2022-12-25T22:04:23.630Z,8.46
2022-12-25T22:07:08.830Z,8.47
2022-12-25T22:09:35.361Z,8.47
2022-12-25T22:12:21.236Z,8.48
2022-12-25T22:14:54.047Z,8.48
2022-12-25T22:17:42.328Z,8.49
2022-12-25T22:20:15.840Z,8.49
2022-12-25T22:22:42.650Z,8.50
2022-12-25T22:25:09.684Z,8.51
2022-12-25T22:27:38.603Z,8.53
2022-12-25T22:30:07.410Z,8.52
2022-12-25T22:32:34.633Z,8.52
2022-12-25T22:35:01.218Z,8.52
2022-12-25T22:37:27.746Z,8.52
2022-12-25T22:39:54.266Z,8.55
2022-12-25T22:42:20.961Z,8.54
2022-12-25T22:44:47.453Z,8.55
2022-12-25T22:47:14.157Z,8.56
2022-12-25T22:49:40.802Z,8.56
2022-12-25T22:52:09.793Z,8.57
2022-12-25T22:54:37.183Z,8.56
2022-12-25T22:57:04.762Z,8.57
2022-12-25T22:59:32.925Z,8.59
2022-12-25T23:02:00.119Z,8.60
2022-12-25T23:04:27.391Z,8.59
2022-12-25T23:06:53.949Z,8.59
2022-12-25T23:09:24.768Z,8.60
2022-12-25T23:11:51.499Z,8.59
2022-12-25T23:14:36.522Z,8.62
2022-12-25T23:17:03.259Z,8.62
2022-12-25T23:19:48.337Z,8.62
2022-12-25T23:22:34.019Z,8.62
2022-12-25T23:25:19.173Z,8.62
2022-12-25T23:27:46.003Z,8.61
2022-12-25T23:30:15.978Z,8.62
2022-12-25T23:32:44.198Z,8.63
2022-12-25T23:35:11.633Z,8.63
2022-12-25T23:37:38.164Z,8.63
2022-12-25T23:40:05.348Z,8.64
2022-12-25T23:42:31.963Z,8.64
2022-12-25T23:44:58.490Z,8.65
2022-12-25T23:47:24.998Z,8.65
2022-12-25T23:49:51.530Z,8.66
2022-12-25T23:52:19.696Z,8.65
2022-12-25T23:54:47.062Z,8.64
2022-12-25T23:57:13.545Z,8.65
2022-12-25T23:59:40.006Z,8.65
